sensor_id;sensor_type;location;lat;lon;timestamp;P1;durP1;ratioP1;P2;durP2;ratioP2
60306;SDS011;46155;52.364;6.580;2023-05-16T03:01:16;10.90;;;9.93;;
60306;SDS011;46155;52.364;6.580;2023-05-16T03:03:42;16.97;;;9.20;;
60306;SDS011;46155;52.364;6.580;2023-05-16T03:06:07;11.37;;;8.90;;
60306;SDS011;46155;52.364;6.580;2023-05-16T03:08:33;10.13;;;9.30;;
60306;SDS011;46155;52.364;6.580;2023-05-16T03:10:59;11.53;;;10.47;;
60306;SDS011;46155;52.364;6.580;2023-05-16T03:13:24;11.40;;;9.17;;
60306;SDS011;46155;52.364;6.580;2023-05-16T03:15:50;13.87;;;9.60;;
60306;SDS011;46155;52.364;6.580;2023-05-16T03:18:15;16.37;;;10.50;;
60306;SDS011;46155;52.364;6.580;2023-05-16T03:20:41;19.07;;;10.00;;
60306;SDS011;46155;52.364;6.580;2023-05-16T03:23:06;20.40;;;12.00;;
60306;SDS011;46155;52.364;6.580;2023-05-16T03:25:35;12.23;;;10.93;;
60306;SDS011;46155;52.364;6.580;2023-05-16T03:28:02;11.40;;;10.10;;
60306;SDS011;46155;52.364;6.580;2023-05-16T03:30:29;14.77;;;9.17;;
60306;SDS011;46155;52.364;6.580;2023-05-16T03:32:55;11.63;;;10.37;;
60306;SDS011;46155;52.364;6.580;2023-05-16T03:35:20;12.87;;;9.53;;
60306;SDS011;46155;52.364;6.580;2023-05-16T03:37:46;16.97;;;9.43;;
60306;SDS011;46155;52.364;6.580;2023-05-16T03:40:11;13.57;;;9.40;;
60306;SDS011;46155;52.364;6.580;2023-05-16T03:42:37;8.60;;;7.60;;
60306;SDS011;46155;52.364;6.580;2023-05-16T03:45:06;10.30;;;9.57;;
60306;SDS011;46155;52.364;6.580;2023-05-16T03:47:32;14.30;;;8.75;;
60306;SDS011;46155;52.364;6.580;2023-05-16T03:49:57;9.63;;;7.10;;
60306;SDS011;46155;52.364;6.580;2023-05-16T03:52:23;14.20;;;7.70;;
60306;SDS011;46155;52.364;6.580;2023-05-16T03:54:48;10.43;;;6.87;;
60306;SDS011;46155;52.364;6.580;2023-05-16T03:57:14;11.63;;;6.70;;
60306;SDS011;46155;52.364;6.580;2023-05-16T03:59:40;13.50;;;7.53;;
60306;SDS011;46155;52.364;6.580;2023-05-16T04:02:05;10.33;;;6.53;;
60306;SDS011;46155;52.364;6.580;2023-05-16T04:04:30;20.20;;;7.50;;
60306;SDS011;46155;52.364;6.580;2023-05-16T04:06:56;10.43;;;7.03;;
60306;SDS011;46155;52.364;6.580;2023-05-16T04:09:22;14.63;;;7.20;;
60306;SDS011;46155;52.364;6.580;2023-05-16T04:11:47;11.63;;;7.40;;
60306;SDS011;46155;52.364;6.580;2023-05-16T04:14:12;9.20;;;6.33;;
60306;SDS011;46155;52.364;6.580;2023-05-16T04:16:39;11.23;;;6.97;;
60306;SDS011;46155;52.364;6.580;2023-05-16T04:19:05;12.00;;;7.07;;
60306;SDS011;46155;52.364;6.580;2023-05-16T04:21:31;11.50;;;7.47;;
60306;SDS011;46155;52.364;6.580;2023-05-16T04:23:56;11.70;;;8.07;;
60306;SDS011;46155;52.364;6.580;2023-05-16T04:26:22;9.73;;;7.60;;
60306;SDS011;46155;52.364;6.580;2023-05-16T04:28:48;7.43;;;6.73;;
60306;SDS011;46155;52.364;6.580;2023-05-16T04:31:14;14.67;;;7.90;;
60306;SDS011;46155;52.364;6.580;2023-05-16T04:33:40;11.20;;;6.77;;
60306;SDS011;46155;52.364;6.580;2023-05-16T04:36:06;7.77;;;6.87;;
60306;SDS011;46155;52.364;6.580;2023-05-16T04:38:32;9.40;;;7.47;;
60306;SDS011;46155;52.364;6.580;2023-05-16T04:40:57;11.37;;;8.53;;
60306;SDS011;46155;52.364;6.580;2023-05-16T04:43:22;13.17;;;7.97;;
60306;SDS011;46155;52.364;6.580;2023-05-16T04:45:48;13.00;;;7.73;;
60306;SDS011;46155;52.364;6.580;2023-05-16T04:48:14;11.73;;;8.13;;
60306;SDS011;46155;52.364;6.580;2023-05-16T04:50:40;12.43;;;8.23;;
60306;SDS011;46155;52.364;6.580;2023-05-16T04:53:06;19.07;;;8.87;;
60306;SDS011;46155;52.364;6.580;2023-05-16T04:55:31;8.90;;;7.80;;
60306;SDS011;46155;52.364;6.580;2023-05-16T04:57:56;9.23;;;7.33;;
60306;SDS011;46155;52.364;6.580;2023-05-16T05:00:22;12.20;;;8.10;;
60306;SDS011;46155;52.364;6.580;2023-05-16T05:02:47;7.83;;;7.03;;
60306;SDS011;46155;52.364;6.580;2023-05-16T05:05:12;18.27;;;7.43;;
60306;SDS011;46155;52.364;6.580;2023-05-16T05:07:38;11.97;;;7.47;;
60306;SDS011;46155;52.364;6.580;2023-05-16T05:10:04;14.33;;;7.87;;
60306;SDS011;46155;52.364;6.580;2023-05-16T05:12:31;10.37;;;7.30;;
60306;SDS011;46155;52.364;6.580;2023-05-16T05:14:57;11.53;;;6.93;;
60306;SDS011;46155;52.364;6.580;2023-05-16T05:17:22;14.40;;;7.40;;
60306;SDS011;46155;52.364;6.580;2023-05-16T05:19:47;20.30;;;8.40;;
60306;SDS011;46155;52.364;6.580;2023-05-16T05:22:13;9.10;;;7.03;;
60306;SDS011;46155;52.364;6.580;2023-05-16T05:24:39;20.27;;;6.80;;
60306;SDS011;46155;52.364;6.580;2023-05-16T05:27:04;16.57;;;6.97;;
60306;SDS011;46155;52.364;6.580;2023-05-16T05:29:30;7.07;;;6.30;;
60306;SDS011;46155;52.364;6.580;2023-05-16T05:31:55;15.70;;;6.70;;
60306;SDS011;46155;52.364;6.580;2023-05-16T05:34:20;11.53;;;6.20;;
60306;SDS011;46155;52.364;6.580;2023-05-16T05:36:46;11.83;;;7.00;;
60306;SDS011;46155;52.364;6.580;2023-05-16T05:39:11;10.17;;;6.10;;
60306;SDS011;46155;52.364;6.580;2023-05-16T05:41:36;10.47;;;7.10;;
60306;SDS011;46155;52.364;6.580;2023-05-16T05:44:02;22.20;;;6.83;;
60306;SDS011;46155;52.364;6.580;2023-05-16T05:46:28;11.00;;;5.90;;
60306;SDS011;46155;52.364;6.580;2023-05-16T05:48:54;7.73;;;6.97;;
60306;SDS011;46155;52.364;6.580;2023-05-16T05:51:19;8.90;;;5.77;;
60306;SDS011;46155;52.364;6.580;2023-05-16T05:53:45;8.20;;;6.10;;
60306;SDS011;46155;52.364;6.580;2023-05-16T05:56:10;11.77;;;5.47;;
60306;SDS011;46155;52.364;6.580;2023-05-16T05:58:36;8.80;;;6.00;;
60306;SDS011;46155;52.364;6.580;2023-05-16T06:01:01;18.23;;;5.87;;
60306;SDS011;46155;52.364;6.580;2023-05-16T06:03:26;12.73;;;5.83;;
60306;SDS011;46155;52.364;6.580;2023-05-16T06:05:52;7.07;;;5.47;;
60306;SDS011;46155;52.364;6.580;2023-05-16T06:08:17;8.43;;;5.40;;
60306;SDS011;46155;52.364;6.580;2023-05-16T06:10:43;14.17;;;6.00;;
60306;SDS011;46155;52.364;6.580;2023-05-16T06:13:08;11.40;;;5.73;;
60306;SDS011;46155;52.364;6.580;2023-05-16T06:15:33;13.83;;;5.97;;
60306;SDS011;46155;52.364;6.580;2023-05-16T06:17:59;11.43;;;5.53;;
60306;SDS011;46155;52.364;6.580;2023-05-16T06:20:24;9.97;;;4.77;;
60306;SDS011;46155;52.364;6.580;2023-05-16T06:22:50;10.33;;;5.07;;
60306;SDS011;46155;52.364;6.580;2023-05-16T06:25:15;12.73;;;5.57;;
60306;SDS011;46155;52.364;6.580;2023-05-16T06:27:40;19.10;;;6.93;;
60306;SDS011;46155;52.364;6.580;2023-05-16T06:30:06;12.03;;;5.37;;
60306;SDS011;46155;52.364;6.580;2023-05-16T06:32:32;5.93;;;4.83;;
60306;SDS011;46155;52.364;6.580;2023-05-16T06:34:58;12.10;;;5.50;;
60306;SDS011;46155;52.364;6.580;2023-05-16T06:37:23;7.57;;;4.93;;
60306;SDS011;46155;52.364;6.580;2023-05-16T06:39:50;18.13;;;6.07;;
60306;SDS011;46155;52.364;6.580;2023-05-16T06:42:15;9.43;;;5.53;;
60306;SDS011;46155;52.364;6.580;2023-05-16T06:44:40;11.00;;;5.87;;
60306;SDS011;46155;52.364;6.580;2023-05-16T06:47:06;11.03;;;6.30;;
60306;SDS011;46155;52.364;6.580;2023-05-16T06:49:31;9.07;;;5.87;;
60306;SDS011;46155;52.364;6.580;2023-05-16T06:51:57;15.00;;;5.13;;
60306;SDS011;46155;52.364;6.580;2023-05-16T06:54:22;6.20;;;5.40;;
60306;SDS011;46155;52.364;6.580;2023-05-16T06:56:48;12.43;;;5.80;;
60306;SDS011;46155;52.364;6.580;2023-05-16T06:59:13;17.90;;;5.70;;
60306;SDS011;46155;52.364;6.580;2023-05-16T07:01:38;9.67;;;5.53;;
60306;SDS011;46155;52.364;6.580;2023-05-16T07:04:05;12.07;;;5.43;;
60306;SDS011;46155;52.364;6.580;2023-05-16T07:06:30;6.87;;;4.57;;
60306;SDS011;46155;52.364;6.580;2023-05-16T07:08:55;11.67;;;5.80;;
60306;SDS011;46155;52.364;6.580;2023-05-16T07:11:21;15.50;;;6.33;;
60306;SDS011;46155;52.364;6.580;2023-05-16T07:13:46;9.57;;;5.27;;
60306;SDS011;46155;52.364;6.580;2023-05-16T07:16:12;16.43;;;5.97;;
60306;SDS011;46155;52.364;6.580;2023-05-16T07:18:37;8.20;;;5.63;;
60306;SDS011;46155;52.364;6.580;2023-05-16T07:21:02;12.97;;;5.00;;
60306;SDS011;46155;52.364;6.580;2023-05-16T07:23:28;8.93;;;5.53;;
60306;SDS011;46155;52.364;6.580;2023-05-16T07:25:53;6.30;;;5.57;;
60306;SDS011;46155;52.364;6.580;2023-05-16T07:28:18;7.87;;;5.33;;
60306;SDS011;46155;52.364;6.580;2023-05-16T07:30:44;7.63;;;4.60;;
60306;SDS011;46155;52.364;6.580;2023-05-16T07:33:10;17.70;;;5.10;;
60306;SDS011;46155;52.364;6.580;2023-05-16T07:35:36;6.83;;;4.57;;
60306;SDS011;46155;52.364;6.580;2023-05-16T07:38:01;8.37;;;5.20;;
60306;SDS011;46155;52.364;6.580;2023-05-16T07:40:26;8.30;;;5.10;;
60306;SDS011;46155;52.364;6.580;2023-05-16T07:42:53;10.47;;;5.97;;
60306;SDS011;46155;52.364;6.580;2023-05-16T07:45:18;15.53;;;5.70;;
60306;SDS011;46155;52.364;6.580;2023-05-16T07:47:44;8.93;;;5.80;;
60306;SDS011;46155;52.364;6.580;2023-05-16T07:50:10;6.97;;;5.70;;
60306;SDS011;46155;52.364;6.580;2023-05-16T07:52:35;10.73;;;7.20;;
60306;SDS011;46155;52.364;6.580;2023-05-16T07:55:01;8.63;;;5.27;;
60306;SDS011;46155;52.364;6.580;2023-05-16T07:57:27;6.23;;;5.17;;
60306;SDS011;46155;52.364;6.580;2023-05-16T07:59:52;7.83;;;5.87;;
60306;SDS011;46155;52.364;6.580;2023-05-16T08:02:19;8.53;;;4.90;;
60306;SDS011;46155;52.364;6.580;2023-05-16T08:04:45;8.87;;;4.90;;
60306;SDS011;46155;52.364;6.580;2023-05-16T08:07:12;6.40;;;4.40;;
60306;SDS011;46155;52.364;6.580;2023-05-16T08:09:38;6.30;;;4.60;;
60306;SDS011;46155;52.364;6.580;2023-05-16T08:12:03;5.43;;;4.30;;
60306;SDS011;46155;52.364;6.580;2023-05-16T08:14:29;9.67;;;4.60;;
60306;SDS011;46155;52.364;6.580;2023-05-16T08:16:57;10.23;;;4.83;;
60306;SDS011;46155;52.364;6.580;2023-05-16T08:19:25;8.33;;;4.60;;
60306;SDS011;46155;52.364;6.580;2023-05-16T08:21:51;6.37;;;4.13;;
60306;SDS011;46155;52.364;6.580;2023-05-16T08:24:16;6.50;;;4.40;;
60306;SDS011;46155;52.364;6.580;2023-05-16T08:26:42;5.70;;;3.80;;
60306;SDS011;46155;52.364;6.580;2023-05-16T08:29:07;6.23;;;4.70;;
60306;SDS011;46155;52.364;6.580;2023-05-16T08:31:33;6.23;;;4.33;;
60306;SDS011;46155;52.364;6.580;2023-05-16T08:33:58;6.70;;;4.13;;
60306;SDS011;46155;52.364;6.580;2023-05-16T08:36:25;6.07;;;4.13;;
60306;SDS011;46155;52.364;6.580;2023-05-16T08:38:50;12.57;;;4.23;;
60306;SDS011;46155;52.364;6.580;2023-05-16T08:41:16;5.03;;;4.60;;
60306;SDS011;46155;52.364;6.580;2023-05-16T08:43:41;7.23;;;4.80;;
60306;SDS011;46155;52.364;6.580;2023-05-16T08:46:07;13.80;;;4.80;;
60306;SDS011;46155;52.364;6.580;2023-05-16T08:48:32;4.30;;;4.10;;
60306;SDS011;46155;52.364;6.580;2023-05-16T08:50:59;5.97;;;4.60;;
60306;SDS011;46155;52.364;6.580;2023-05-16T08:53:30;4.83;;;4.53;;
60306;SDS011;46155;52.364;6.580;2023-05-16T08:55:58;5.27;;;4.20;;
60306;SDS011;46155;52.364;6.580;2023-05-16T08:58:24;7.33;;;4.90;;
60306;SDS011;46155;52.364;6.580;2023-05-16T09:00:52;7.53;;;5.00;;
60306;SDS011;46155;52.364;6.580;2023-05-16T09:03:17;10.03;;;5.53;;
60306;SDS011;46155;52.364;6.580;2023-05-16T09:05:45;9.40;;;5.70;;
60306;SDS011;46155;52.364;6.580;2023-05-16T09:08:11;11.40;;;5.50;;
60306;SDS011;46155;52.364;6.580;2023-05-16T09:10:36;6.87;;;6.23;;
60306;SDS011;46155;52.364;6.580;2023-05-16T09:13:02;6.27;;;5.40;;
60306;SDS011;46155;52.364;6.580;2023-05-16T09:15:31;6.47;;;5.50;;
60306;SDS011;46155;52.364;6.580;2023-05-16T09:18:00;11.90;;;7.20;;
60306;SDS011;46155;52.364;6.580;2023-05-16T09:20:26;8.83;;;5.87;;
60306;SDS011;46155;52.364;6.580;2023-05-16T09:22:53;6.30;;;5.70;;
60306;SDS011;46155;52.364;6.580;2023-05-16T09:25:20;9.83;;;6.60;;
60306;SDS011;46155;52.364;6.580;2023-05-16T09:27:47;9.77;;;5.87;;
60306;SDS011;46155;52.364;6.580;2023-05-16T09:30:13;6.27;;;5.73;;
60306;SDS011;46155;52.364;6.580;2023-05-16T09:32:43;9.03;;;5.87;;
60306;SDS011;46155;52.364;6.580;2023-05-16T09:35:10;6.73;;;5.50;;
60306;SDS011;46155;52.364;6.580;2023-05-16T09:37:43;6.40;;;5.77;;
60306;SDS011;46155;52.364;6.580;2023-05-16T09:40:12;7.50;;;5.70;;
60306;SDS011;46155;52.364;6.580;2023-05-16T09:42:38;5.53;;;4.97;;
60306;SDS011;46155;52.364;6.580;2023-05-16T09:45:04;7.07;;;5.03;;
60306;SDS011;46155;52.364;6.580;2023-05-16T09:47:29;8.43;;;5.30;;
60306;SDS011;46155;52.364;6.580;2023-05-16T09:49:55;5.00;;;4.60;;
60306;SDS011;46155;52.364;6.580;2023-05-16T09:52:21;8.70;;;5.10;;
60306;SDS011;46155;52.364;6.580;2023-05-16T09:54:46;7.10;;;5.20;;
60306;SDS011;46155;52.364;6.580;2023-05-16T09:57:18;5.40;;;4.83;;
60306;SDS011;46155;52.364;6.580;2023-05-16T09:59:44;5.53;;;5.00;;
60306;SDS011;46155;52.364;6.580;2023-05-16T10:02:10;4.20;;;3.90;;
60306;SDS011;46155;52.364;6.580;2023-05-16T10:04:37;8.43;;;4.40;;
60306;SDS011;46155;52.364;6.580;2023-05-16T10:07:03;4.63;;;4.10;;
60306;SDS011;46155;52.364;6.580;2023-05-16T10:09:30;4.87;;;4.00;;
60306;SDS011;46155;52.364;6.580;2023-05-16T10:11:57;4.47;;;4.00;;
60306;SDS011;46155;52.364;6.580;2023-05-16T10:14:27;4.87;;;4.37;;
60306;SDS011;46155;52.364;6.580;2023-05-16T10:16:54;5.40;;;4.80;;
60306;SDS011;46155;52.364;6.580;2023-05-16T10:19:21;5.10;;;4.67;;
60306;SDS011;46155;52.364;6.580;2023-05-16T10:21:50;4.50;;;4.10;;
60306;SDS011;46155;52.364;6.580;2023-05-16T10:24:23;8.33;;;4.97;;
60306;SDS011;46155;52.364;6.580;2023-05-16T10:26:53;4.80;;;4.50;;
60306;SDS011;46155;52.364;6.580;2023-05-16T10:29:18;5.07;;;4.57;;
60306;SDS011;46155;52.364;6.580;2023-05-16T10:31:45;5.17;;;4.67;;
60306;SDS011;46155;52.364;6.580;2023-05-16T10:34:11;4.53;;;4.23;;
60306;SDS011;46155;52.364;6.580;2023-05-16T10:36:37;5.37;;;5.00;;
60306;SDS011;46155;52.364;6.580;2023-05-16T10:39:03;5.83;;;4.90;;
60306;SDS011;46155;52.364;6.580;2023-05-16T10:41:29;5.07;;;4.57;;
60306;SDS011;46155;52.364;6.580;2023-05-16T10:43:58;9.33;;;4.87;;
60306;SDS011;46155;52.364;6.580;2023-05-16T10:46:25;4.57;;;4.27;;
60306;SDS011;46155;52.364;6.580;2023-05-16T10:48:52;6.13;;;4.90;;
60306;SDS011;46155;52.364;6.580;2023-05-16T10:53:46;6.43;;;5.30;;
60306;SDS011;46155;52.364;6.580;2023-05-16T10:56:11;5.73;;;4.80;;
60306;SDS011;46155;52.364;6.580;2023-05-16T11:04:05;5.50;;;4.50;;
60306;SDS011;46155;52.364;6.580;2023-05-16T11:14:02;5.27;;;4.70;;
60306;SDS011;46155;52.364;6.580;2023-05-16T11:16:28;4.80;;;4.40;;
60306;SDS011;46155;52.364;6.580;2023-05-16T11:18:54;6.90;;;4.90;;
60306;SDS011;46155;52.364;6.580;2023-05-16T11:24:31;6.70;;;4.47;;
60306;SDS011;46155;52.364;6.580;2023-05-16T11:26:57;5.17;;;4.67;;
60306;SDS011;46155;52.364;6.580;2023-05-16T11:29:24;6.70;;;4.60;;
60306;SDS011;46155;52.364;6.580;2023-05-16T11:31:57;6.53;;;4.90;;
60306;SDS011;46155;52.364;6.580;2023-05-16T11:34:23;6.43;;;4.53;;
60306;SDS011;46155;52.364;6.580;2023-05-16T11:36:49;5.27;;;4.77;;
60306;SDS011;46155;52.364;6.580;2023-05-16T11:39:14;6.00;;;4.50;;
60306;SDS011;46155;52.364;6.580;2023-05-16T11:41:40;5.20;;;4.80;;
60306;SDS011;46155;52.364;6.580;2023-05-16T11:44:05;10.50;;;4.97;;
60306;SDS011;46155;52.364;6.580;2023-05-16T11:46:32;13.27;;;5.00;;
60306;SDS011;46155;52.364;6.580;2023-05-16T11:48:57;13.20;;;5.67;;
60306;SDS011;46155;52.364;6.580;2023-05-16T11:51:23;8.63;;;4.47;;
60306;SDS011;46155;52.364;6.580;2023-05-16T11:53:48;8.43;;;5.07;;
60306;SDS011;46155;52.364;6.580;2023-05-16T11:56:14;5.30;;;4.70;;
60306;SDS011;46155;52.364;6.580;2023-05-16T11:58:40;7.47;;;4.47;;
60306;SDS011;46155;52.364;6.580;2023-05-16T12:01:06;6.57;;;4.30;;
60306;SDS011;46155;52.364;6.580;2023-05-16T12:03:33;4.57;;;4.27;;
60306;SDS011;46155;52.364;6.580;2023-05-16T12:06:00;5.37;;;4.30;;
60306;SDS011;46155;52.364;6.580;2023-05-16T12:08:26;5.40;;;4.83;;
60306;SDS011;46155;52.364;6.580;2023-05-16T12:10:52;8.53;;;5.20;;
60306;SDS011;46155;52.364;6.580;2023-05-16T12:13:21;7.00;;;5.17;;
60306;SDS011;46155;52.364;6.580;2023-05-16T12:15:48;6.60;;;4.70;;
60306;SDS011;46155;52.364;6.580;2023-05-16T12:18:15;6.40;;;4.73;;
60306;SDS011;46155;52.364;6.580;2023-05-16T12:20:42;5.37;;;4.83;;
60306;SDS011;46155;52.364;6.580;2023-05-16T12:23:11;8.07;;;4.93;;
60306;SDS011;46155;52.364;6.580;2023-05-16T12:25:37;8.70;;;4.70;;
60306;SDS011;46155;52.364;6.580;2023-05-16T12:28:07;8.83;;;4.40;;
60306;SDS011;46155;52.364;6.580;2023-05-16T12:30:34;5.10;;;3.93;;
60306;SDS011;46155;52.364;6.580;2023-05-16T12:35:29;11.10;;;4.43;;
60306;SDS011;46155;52.364;6.580;2023-05-16T12:37:56;12.13;;;5.33;;
60306;SDS011;46155;52.364;6.580;2023-05-16T12:40:22;8.23;;;4.83;;
60306;SDS011;46155;52.364;6.580;2023-05-16T12:42:51;5.10;;;4.60;;
60306;SDS011;46155;52.364;6.580;2023-05-16T12:45:17;6.73;;;4.73;;
60306;SDS011;46155;52.364;6.580;2023-05-16T12:47:43;5.93;;;4.67;;
60306;SDS011;46155;52.364;6.580;2023-05-16T12:50:13;6.83;;;4.20;;
60306;SDS011;46155;52.364;6.580;2023-05-16T12:55:13;4.73;;;4.33;;
60306;SDS011;46155;52.364;6.580;2023-05-16T12:57:43;5.27;;;4.50;;
60306;SDS011;46155;52.364;6.580;2023-05-16T13:00:10;4.07;;;3.67;;
60306;SDS011;46155;52.364;6.580;2023-05-16T13:02:36;4.87;;;4.50;;
60306;SDS011;46155;52.364;6.580;2023-05-16T13:05:02;7.30;;;4.13;;
60306;SDS011;46155;52.364;6.580;2023-05-16T13:07:28;4.70;;;4.40;;
60306;SDS011;46155;52.364;6.580;2023-05-16T13:09:54;4.83;;;4.30;;
60306;SDS011;46155;52.364;6.580;2023-05-16T13:12:20;5.07;;;4.60;;
60306;SDS011;46155;52.364;6.580;2023-05-16T13:14:46;4.70;;;4.23;;
60306;SDS011;46155;52.364;6.580;2023-05-16T13:17:11;4.57;;;4.27;;
60306;SDS011;46155;52.364;6.580;2023-05-16T13:19:37;4.50;;;4.20;;
60306;SDS011;46155;52.364;6.580;2023-05-16T13:22:02;4.10;;;3.80;;
60306;SDS011;46155;52.364;6.580;2023-05-16T13:24:28;4.87;;;4.57;;
60306;SDS011;46155;52.364;6.580;2023-05-16T13:26:53;4.60;;;4.40;;
60306;SDS011;46155;52.364;6.580;2023-05-16T13:29:18;5.07;;;4.67;;
60306;SDS011;46155;52.364;6.580;2023-05-16T13:31:44;5.37;;;4.80;;
60306;SDS011;46155;52.364;6.580;2023-05-16T13:34:09;5.20;;;4.80;;
60306;SDS011;46155;52.364;6.580;2023-05-16T13:36:34;4.80;;;4.43;;
60306;SDS011;46155;52.364;6.580;2023-05-16T13:39:00;5.53;;;4.47;;
60306;SDS011;46155;52.364;6.580;2023-05-16T13:41:26;5.10;;;4.70;;
60306;SDS011;46155;52.364;6.580;2023-05-16T13:43:51;6.73;;;4.50;;
60306;SDS011;46155;52.364;6.580;2023-05-16T13:46:16;5.30;;;4.77;;
60306;SDS011;46155;52.364;6.580;2023-05-16T13:48:42;5.27;;;4.97;;
60306;SDS011;46155;52.364;6.580;2023-05-16T13:51:07;5.07;;;4.77;;
60306;SDS011;46155;52.364;6.580;2023-05-16T13:53:34;5.97;;;5.40;;
60306;SDS011;46155;52.364;6.580;2023-05-16T13:56:00;5.70;;;5.00;;
60306;SDS011;46155;52.364;6.580;2023-05-16T13:58:25;5.13;;;4.73;;
60306;SDS011;46155;52.364;6.580;2023-05-16T14:00:51;5.00;;;4.60;;
60306;SDS011;46155;52.364;6.580;2023-05-16T14:03:16;7.63;;;5.20;;
60306;SDS011;46155;52.364;6.580;2023-05-16T14:05:41;5.90;;;5.10;;
60306;SDS011;46155;52.364;6.580;2023-05-16T14:08:07;6.53;;;4.50;;
60306;SDS011;46155;52.364;6.580;2023-05-16T14:10:32;5.70;;;4.70;;
60306;SDS011;46155;52.364;6.580;2023-05-16T14:12:57;12.73;;;5.13;;
60306;SDS011;46155;52.364;6.580;2023-05-16T14:15:23;12.90;;;4.53;;
60306;SDS011;46155;52.364;6.580;2023-05-16T14:17:48;6.63;;;5.00;;
60306;SDS011;46155;52.364;6.580;2023-05-16T14:20:14;5.90;;;5.30;;
60306;SDS011;46155;52.364;6.580;2023-05-16T14:22:39;10.00;;;4.63;;
60306;SDS011;46155;52.364;6.580;2023-05-16T14:25:05;16.40;;;5.37;;
60306;SDS011;46155;52.364;6.580;2023-05-16T14:27:31;6.83;;;5.43;;
60306;SDS011;46155;52.364;6.580;2023-05-16T14:29:56;9.73;;;4.70;;
60306;SDS011;46155;52.364;6.580;2023-05-16T14:32:22;7.63;;;5.37;;
60306;SDS011;46155;52.364;6.580;2023-05-16T14:34:48;6.60;;;5.87;;
60306;SDS011;46155;52.364;6.580;2023-05-16T14:37:13;6.07;;;5.27;;
60306;SDS011;46155;52.364;6.580;2023-05-16T14:39:40;8.67;;;5.47;;
60306;SDS011;46155;52.364;6.580;2023-05-16T14:42:06;6.13;;;5.50;;
60306;SDS011;46155;52.364;6.580;2023-05-16T14:44:31;8.40;;;5.70;;
60306;SDS011;46155;52.364;6.580;2023-05-16T14:46:56;7.17;;;5.43;;
60306;SDS011;46155;52.364;6.580;2023-05-16T14:49:21;8.57;;;5.50;;
60306;SDS011;46155;52.364;6.580;2023-05-16T14:51:47;20.03;;;6.23;;
60306;SDS011;46155;52.364;6.580;2023-05-16T14:54:14;11.43;;;5.80;;
60306;SDS011;46155;52.364;6.580;2023-05-16T14:56:41;9.97;;;5.70;;
60306;SDS011;46155;52.364;6.580;2023-05-16T14:59:06;9.50;;;5.87;;
60306;SDS011;46155;52.364;6.580;2023-05-16T15:01:31;10.10;;;5.27;;
60306;SDS011;46155;52.364;6.580;2023-05-16T15:03:57;8.07;;;5.47;;
60306;SDS011;46155;52.364;6.580;2023-05-16T15:06:22;8.87;;;5.50;;
60306;SDS011;46155;52.364;6.580;2023-05-16T15:08:48;9.57;;;6.10;;
60306;SDS011;46155;52.364;6.580;2023-05-16T15:11:13;8.80;;;6.37;;
60306;SDS011;46155;52.364;6.580;2023-05-16T15:13:39;10.40;;;6.33;;
60306;SDS011;46155;52.364;6.580;2023-05-16T15:16:04;13.17;;;5.70;;
60306;SDS011;46155;52.364;6.580;2023-05-16T15:18:30;9.97;;;5.67;;
60306;SDS011;46155;52.364;6.580;2023-05-16T15:20:55;8.40;;;5.13;;
60306;SDS011;46155;52.364;6.580;2023-05-16T15:23:20;8.93;;;5.53;;
60306;SDS011;46155;52.364;6.580;2023-05-16T15:25:46;6.97;;;5.47;;
60306;SDS011;46155;52.364;6.580;2023-05-16T15:28:11;6.03;;;5.00;;
60306;SDS011;46155;52.364;6.580;2023-05-16T15:30:36;6.23;;;5.37;;
60306;SDS011;46155;52.364;6.580;2023-05-16T15:33:02;9.90;;;5.63;;
60306;SDS011;46155;52.364;6.580;2023-05-16T15:35:27;13.10;;;5.30;;
60306;SDS011;46155;52.364;6.580;2023-05-16T15:37:52;9.27;;;5.40;;
60306;SDS011;46155;52.364;6.580;2023-05-16T15:40:18;11.27;;;5.17;;
60306;SDS011;46155;52.364;6.580;2023-05-16T15:42:43;5.27;;;4.70;;
60306;SDS011;46155;52.364;6.580;2023-05-16T15:45:09;6.73;;;4.83;;
60306;SDS011;46155;52.364;6.580;2023-05-16T15:47:36;5.70;;;4.83;;
60306;SDS011;46155;52.364;6.580;2023-05-16T15:50:01;5.83;;;5.30;;
60306;SDS011;46155;52.364;6.580;2023-05-16T15:52:27;5.53;;;4.90;;
60306;SDS011;46155;52.364;6.580;2023-05-16T15:54:52;6.77;;;4.93;;
60306;SDS011;46155;52.364;6.580;2023-05-16T15:57:18;8.83;;;6.00;;
60306;SDS011;46155;52.364;6.580;2023-05-16T15:59:43;7.67;;;5.27;;
60306;SDS011;46155;52.364;6.580;2023-05-16T16:02:08;12.77;;;5.23;;
60306;SDS011;46155;52.364;6.580;2023-05-16T16:04:33;7.80;;;5.00;;
60306;SDS011;46155;52.364;6.580;2023-05-16T16:06:59;8.37;;;5.30;;
60306;SDS011;46155;52.364;6.580;2023-05-16T16:09:24;19.33;;;5.07;;
60306;SDS011;46155;52.364;6.580;2023-05-16T16:11:50;9.37;;;4.97;;
60306;SDS011;46155;52.364;6.580;2023-05-16T16:14:19;9.73;;;5.47;;
60306;SDS011;46155;52.364;6.580;2023-05-16T16:16:45;8.37;;;5.07;;
60306;SDS011;46155;52.364;6.580;2023-05-16T16:19:10;9.37;;;5.50;;
60306;SDS011;46155;52.364;6.580;2023-05-16T16:21:35;13.40;;;5.87;;
60306;SDS011;46155;52.364;6.580;2023-05-16T16:24:01;6.30;;;5.13;;
60306;SDS011;46155;52.364;6.580;2023-05-16T16:26:26;6.37;;;5.63;;
60306;SDS011;46155;52.364;6.580;2023-05-16T16:28:52;6.47;;;5.87;;
60306;SDS011;46155;52.364;6.580;2023-05-16T16:31:17;6.87;;;5.10;;
60306;SDS011;46155;52.364;6.580;2023-05-16T16:33:42;12.27;;;6.00;;
60306;SDS011;46155;52.364;6.580;2023-05-16T16:36:08;11.20;;;5.10;;
60306;SDS011;46155;52.364;6.580;2023-05-16T16:38:33;6.17;;;5.43;;
60306;SDS011;46155;52.364;6.580;2023-05-16T16:40:58;6.07;;;5.47;;
60306;SDS011;46155;52.364;6.580;2023-05-16T16:43:24;7.07;;;5.20;;
60306;SDS011;46155;52.364;6.580;2023-05-16T16:45:49;7.63;;;5.80;;
60306;SDS011;46155;52.364;6.580;2023-05-16T16:48:15;5.77;;;5.27;;
60306;SDS011;46155;52.364;6.580;2023-05-16T16:50:40;6.23;;;4.87;;
60306;SDS011;46155;52.364;6.580;2023-05-16T16:53:07;8.03;;;5.10;;
60306;SDS011;46155;52.364;6.580;2023-05-16T16:55:32;13.13;;;5.43;;
60306;SDS011;46155;52.364;6.580;2023-05-16T16:57:57;7.53;;;5.40;;
60306;SDS011;46155;52.364;6.580;2023-05-16T17:00:23;10.40;;;5.20;;
60306;SDS011;46155;52.364;6.580;2023-05-16T17:02:48;7.60;;;4.67;;
60306;SDS011;46155;52.364;6.580;2023-05-16T17:05:14;5.77;;;4.80;;
60306;SDS011;46155;52.364;6.580;2023-05-16T17:07:39;6.70;;;4.80;;
60306;SDS011;46155;52.364;6.580;2023-05-16T17:10:05;10.27;;;4.60;;
60306;SDS011;46155;52.364;6.580;2023-05-16T17:12:31;8.13;;;4.77;;
60306;SDS011;46155;52.364;6.580;2023-05-16T17:14:57;9.97;;;4.53;;
60306;SDS011;46155;52.364;6.580;2023-05-16T17:17:23;9.03;;;4.33;;
60306;SDS011;46155;52.364;6.580;2023-05-16T17:19:49;6.10;;;4.40;;
60306;SDS011;46155;52.364;6.580;2023-05-16T17:22:15;5.93;;;5.00;;
60306;SDS011;46155;52.364;6.580;2023-05-16T17:24:41;10.90;;;4.67;;
60306;SDS011;46155;52.364;6.580;2023-05-16T17:27:06;6.17;;;5.17;;
60306;SDS011;46155;52.364;6.580;2023-05-16T17:29:31;5.37;;;5.00;;
60306;SDS011;46155;52.364;6.580;2023-05-16T17:31:57;5.93;;;4.53;;
60306;SDS011;46155;52.364;6.580;2023-05-16T17:34:22;6.13;;;4.70;;
60306;SDS011;46155;52.364;6.580;2023-05-16T17:36:48;9.37;;;4.87;;
60306;SDS011;46155;52.364;6.580;2023-05-16T17:39:14;7.00;;;4.90;;
60306;SDS011;46155;52.364;6.580;2023-05-16T17:41:39;10.27;;;4.50;;
60306;SDS011;46155;52.364;6.580;2023-05-16T17:44:05;5.40;;;4.60;;
60306;SDS011;46155;52.364;6.580;2023-05-16T17:46:31;10.27;;;4.53;;
60306;SDS011;46155;52.364;6.580;2023-05-16T17:49:02;9.73;;;5.07;;
60306;SDS011;46155;52.364;6.580;2023-05-16T17:51:28;9.77;;;4.80;;
60306;SDS011;46155;52.364;6.580;2023-05-16T17:53:53;4.43;;;4.07;;
60306;SDS011;46155;52.364;6.580;2023-05-16T17:56:18;4.60;;;4.30;;
60306;SDS011;46155;52.364;6.580;2023-05-16T17:58:44;8.07;;;4.40;;